Time;durP1;ratioP1;P1;durP2;ratioP2;P2;SDS_P1;SDS_P2;PMS_P1;PMS_P2;Temp;Humidity;BMP_temperature;BMP_pressure;BME280_temperature;BME280_humidity;BME280_pressure;Samples;Min_cycle;Max_cycle;Signal;HPM_P1;HPM_P2
2021/07/15 00:02:15;;;;;;;31.30;29.55;;;17.40;99.90;;;;;;4975818;28;20027;-62
2021/07/15 00:04:43;;;;;;;30.70;29.10;;;17.50;99.90;;;;;;4975282;28;20412;-64
2021/07/15 00:07:13;;;;;;;31.25;29.38;;;17.60;99.90;;;;;;4974439;28;20027;-65
2021/07/15 00:09:41;;;;;;;31.15;29.23;;;17.70;99.90;;;;;;4975705;28;20022;-66
2021/07/15 00:12:11;;;;;;;31.10;29.40;;;17.90;99.90;;;;;;4975603;28;20088;-67
2021/07/15 00:14:38;;;;;;;31.17;29.48;;;17.90;99.90;;;;;;4975420;28;20435;-63
2021/07/15 00:17:06;;;;;;;29.93;28.37;;;18.00;99.90;;;;;;4975191;28;20023;-62
2021/07/15 00:19:34;;;;;;;29.77;28.08;;;18.20;99.90;;;;;;4974580;28;20145;-63
2021/07/15 00:22:02;;;;;;;28.73;27.33;;;18.30;99.90;;;;;;4975335;28;20406;-59
2021/07/15 00:24:30;;;;;;;27.75;26.35;;;18.30;99.90;;;;;;4975325;28;20070;-60
2021/07/15 00:26:57;;;;;;;28.35;26.85;;;18.40;99.90;;;;;;4975359;28;20096;-59
2021/07/15 00:29:25;;;;;;;27.83;26.42;;;18.50;99.90;;;;;;4975321;28;20054;-60
2021/07/15 00:31:53;;;;;;;24.73;23.52;;;18.70;99.90;;;;;;4975206;28;20019;-60
2021/07/15 00:34:20;;;;;;;25.75;24.40;;;18.60;99.90;;;;;;4975247;28;20034;-60
2021/07/15 00:36:47;;;;;;;25.73;24.52;;;18.70;99.90;;;;;;4975545;28;20045;-60
2021/07/15 00:39:15;;;;;;;24.95;23.70;;;18.80;99.90;;;;;;4975246;28;20049;-60
2021/07/15 00:41:43;;;;;;;23.75;22.55;;;18.80;99.90;;;;;;4975095;28;20027;-61
2021/07/15 00:44:10;;;;;;;21.73;20.73;;;18.90;99.90;;;;;;4975001;28;20045;-65
2021/07/15 00:46:37;;;;;;;21.90;20.80;;;18.90;99.90;;;;;;4974955;28;20019;-63
2021/07/15 00:49:05;;;;;;;22.25;21.15;;;18.90;99.90;;;;;;4974880;28;20391;-63
2021/07/15 00:51:32;;;;;;;23.27;22.08;;;19.00;99.90;;;;;;4974925;28;20077;-63
2021/07/15 00:54:01;;;;;;;22.70;21.70;;;19.10;99.90;;;;;;4974813;28;20053;-64
2021/07/15 00:56:29;;;;;;;22.40;21.30;;;19.10;99.90;;;;;;4974751;28;20027;-64
2021/07/15 00:58:57;;;;;;;22.92;21.92;;;19.20;99.90;;;;;;4973411;28;20053;-64
2021/07/15 01:01:24;;;;;;;22.67;21.58;;;19.30;99.90;;;;;;4974522;28;20019;-63
2021/07/15 01:03:52;;;;;;;22.15;21.15;;;19.30;99.90;;;;;;4974381;28;20122;-63
2021/07/15 01:06:20;;;;;;;21.80;20.63;;;19.30;99.90;;;;;;4974749;28;20472;-64
2021/07/15 01:08:47;;;;;;;21.67;20.73;;;19.30;99.90;;;;;;4974676;28;20161;-63
2021/07/15 01:11:31;;;;;;;20.40;19.42;;;19.50;99.90;;;;;;4974765;28;20101;-63
2021/07/15 01:14:33;;;;;;;19.38;18.48;;;19.50;99.90;;;;;;4974603;28;20105;-65
2021/07/15 01:17:12;;;;;;;19.85;18.75;;;19.40;99.90;;;;;;4974691;28;20033;-65
2021/07/15 01:20:04;;;;;;;20.95;19.85;;;19.60;99.90;;;;;;4974473;28;20030;-65
2021/07/15 01:23:00;;;;;;;19.30;18.38;;;19.80;99.90;;;;;;4974475;28;20019;-62
2021/07/15 01:25:30;;;;;;;17.63;16.83;;;19.80;99.90;;;;;;4974488;28;20030;-61
2021/07/15 01:28:05;;;;;;;16.20;15.60;;;19.80;99.90;;;;;;4974421;28;20035;-61
2021/07/15 01:30:44;;;;;;;16.73;16.02;;;19.80;99.90;;;;;;4974404;28;20110;-60
2021/07/15 01:33:21;;;;;;;15.18;14.48;;;19.90;99.90;;;;;;4974486;28;20107;-59
2021/07/15 01:36:11;;;;;;;10.20;9.80;;;19.90;99.90;;;;;;4974284;28;20450;-60
2021/07/15 01:39:03;;;;;;;6.40;6.10;;;19.90;99.90;;;;;;4973287;28;20026;-58
2021/07/15 01:41:42;;;;;;;6.82;6.38;;;20.00;99.90;;;;;;4974423;28;20118;-59
2021/07/15 01:44:18;;;;;;;5.55;5.20;;;20.20;99.90;;;;;;4974154;28;20042;-60
2021/07/15 01:46:46;;;;;;;4.85;4.60;;;20.10;99.90;;;;;;4973874;28;20019;-57
2021/07/15 01:49:14;;;;;;;4.80;4.50;;;20.00;99.90;;;;;;4974231;28;20109;-61
2021/07/15 01:51:42;;;;;;;5.53;5.20;;;20.00;99.90;;;;;;4974043;28;20023;-60
2021/07/15 01:54:10;;;;;;;5.90;5.55;;;20.20;99.90;;;;;;4974139;28;20027;-61
2021/07/15 01:56:40;;;;;;;5.13;4.90;;;20.30;99.90;;;;;;4973993;28;20038;-60
2021/07/15 01:59:14;;;;;;;5.00;4.75;;;20.40;99.90;;;;;;4973867;28;20035;-61
2021/07/15 02:01:44;;;;;;;5.90;5.60;;;20.20;99.90;;;;;;4974130;28;20031;-62
2021/07/15 02:04:14;;;;;;;5.35;5.05;;;20.20;99.90;;;;;;4973916;28;20043;-61
2021/07/15 02:06:48;;;;;;;5.20;5.00;;;20.50;99.90;;;;;;4973995;28;20027;-62
2021/07/15 02:09:16;;;;;;;5.95;5.63;;;20.50;99.90;;;;;;4973915;28;20034;-63
2021/07/15 02:11:46;;;;;;;5.53;5.22;;;20.50;99.50;;;;;;4973951;28;20051;-67
2021/07/15 02:14:15;;;;;;;4.70;4.40;;;20.40;99.90;;;;;;4973892;28;20023;-64
2021/07/15 02:16:47;;;;;;;4.60;4.20;;;20.10;99.80;;;;;;4973958;28;20026;-64
2021/07/15 02:19:15;;;;;;;4.40;4.20;;;20.30;99.40;;;;;;4973892;28;20027;-64
2021/07/15 02:21:45;;;;;;;4.40;4.10;;;20.50;99.50;;;;;;4973862;28;20493;-64
2021/07/15 02:24:15;;;;;;;5.45;5.07;;;20.70;99.30;;;;;;4973809;28;20463;-65
2021/07/15 02:26:45;;;;;;;4.60;4.40;;;20.80;99.40;;;;;;4974127;28;20019;-63
2021/07/15 02:29:13;;;;;;;5.10;4.80;;;20.80;99.40;;;;;;4974045;28;20034;-64
2021/07/15 02:32:07;;;;;;;4.18;3.90;;;20.70;99.90;;;;;;4973821;28;20071;-63
2021/07/15 02:34:54;;;;;;;4.00;3.67;;;20.70;99.90;;;;;;4973809;28;20023;-62
2021/07/15 02:37:25;;;;;;;3.85;3.55;;;20.80;99.40;;;;;;4973536;28;20023;-62
2021/07/15 02:39:52;;;;;;;;;;;21.00;98.80;;;;;;4974181;28;20030;-65
2021/07/15 02:42:19;;;;;;;4.50;4.30;;;21.00;98.50;;;;;;4974799;28;20409;-65
2021/07/15 02:44:49;;;;;;;4.43;4.28;;;20.90;98.30;;;;;;4977127;28;20027;-65
2021/07/15 02:47:17;;;;;;;5.57;5.28;;;20.90;98.10;;;;;;4977210;28;20054;-62
2021/07/15 02:49:45;;;;;;;5.20;4.80;;;20.80;98.10;;;;;;4976996;28;20526;-61
2021/07/15 02:52:13;;;;;;;5.50;5.07;;;20.80;97.90;;;;;;4977154;28;20023;-65
2021/07/15 02:54:41;;;;;;;5.50;5.30;;;20.90;97.80;;;;;;4976922;28;20027;-62
2021/07/15 02:58:17;;;;;;;4.93;4.72;;;21.30;97.60;;;;;;5090641;27;20383;-61
2021/07/15 03:00:52;;;;;;;5.18;4.88;;;21.40;98.90;;;;;;5090486;28;20032;-63
2021/07/15 03:03:35;;;;;;;5.15;4.75;;;21.40;99.00;;;;;;5090411;28;20365;-59
2021/07/15 03:06:14;;;;;;;4.80;4.50;;;21.30;98.50;;;;;;5090461;28;20020;-59
2021/07/15 03:08:57;;;;;;;5.10;4.70;;;21.50;98.80;;;;;;5090391;28;20047;-64
2021/07/15 03:11:33;;;;;;;4.30;4.10;;;21.70;98.10;;;;;;5090043;28;20119;-63
2021/07/15 03:14:03;;;;;;;4.20;4.00;;;21.70;98.70;;;;;;5090181;28;20028;-61
2021/07/15 03:16:34;;;;;;;4.10;3.90;;;21.70;98.30;;;;;;5090008;28;20039;-58
2021/07/15 03:19:04;;;;;;;4.43;4.00;;;21.40;98.70;;;;;;5090274;28;20108;-58
2021/07/15 03:21:34;;;;;;;4.43;4.18;;;21.00;99.70;;;;;;5090105;28;20025;-58
2021/07/15 03:24:04;;;;;;;4.60;4.30;;;20.90;99.90;;;;;;5090338;28;20111;-58
2021/07/15 03:26:33;;;;;;;5.50;5.30;;;20.90;99.90;;;;;;5090164;28;20029;-58
2021/07/15 03:29:02;;;;;;;4.72;4.43;;;20.70;99.90;;;;;;5089999;28;20111;-58
2021/07/15 03:31:30;;;;;;;4.60;4.40;;;20.60;99.90;;;;;;5089906;28;20025;-58
2021/07/15 03:33:58;;;;;;;4.20;4.00;;;21.00;99.90;;;;;;5089903;28;20051;-58
2021/07/15 03:36:26;;;;;;;4.70;4.40;;;21.20;99.90;;;;;;5089774;28;20021;-59
2021/07/15 03:38:54;;;;;;;4.63;4.30;;;21.20;99.90;;;;;;5090310;28;20021;-59
2021/07/15 03:41:22;;;;;;;4.25;4.05;;;21.30;99.90;;;;;;5090976;28;20020;-62
2021/07/15 03:43:50;;;;;;;4.55;4.35;;;21.30;99.90;;;;;;5089681;28;20044;-62
2021/07/15 03:46:19;;;;;;;4.38;4.18;;;21.20;99.90;;;;;;5089563;28;20413;-62
2021/07/15 03:48:47;;;;;;;4.20;3.92;;;21.30;99.90;;;;;;5089441;28;20496;-61
2021/07/15 03:51:15;;;;;;;4.65;4.45;;;21.30;99.90;;;;;;5089847;28;20032;-60
2021/07/15 03:53:45;;;;;;;4.43;4.20;;;21.40;99.90;;;;;;5088132;28;20089;-59
2021/07/15 03:56:14;;;;;;;4.10;3.90;;;21.40;99.90;;;;;;5089285;28;20464;-59
2021/07/15 03:58:45;;;;;;;4.45;4.18;;;21.40;99.90;;;;;;5089411;28;20020;-59
2021/07/15 04:01:13;;;;;;;4.60;4.40;;;21.50;99.90;;;;;;5089508;28;20028;-59
2021/07/15 04:03:44;;;;;;;4.60;4.40;;;21.30;99.90;;;;;;5089099;28;20032;-59
2021/07/15 04:06:12;;;;;;;4.70;4.40;;;21.20;99.90;;;;;;5089630;28;20051;-59
2021/07/15 04:08:42;;;;;;;4.03;3.83;;;21.30;99.90;;;;;;5079003;28;20396;-58
2021/07/15 04:11:10;;;;;;;4.00;3.90;;;21.20;99.90;;;;;;5075894;28;20095;-61
2021/07/15 04:13:43;;;;;;;4.78;4.57;;;21.10;99.90;;;;;;5075524;28;20059;-61
2021/07/15 04:16:59;;;;;;;4.20;4.00;;;21.00;99.90;;;;;;5075350;28;20033;-61
2021/07/15 04:19:27;;;;;;;4.00;3.80;;;21.10;99.90;;;;;;5054590;28;20086;-59
2021/07/15 04:21:55;;;;;;;4.20;4.00;;;21.10;99.90;;;;;;5075456;28;20117;-59
2021/07/15 04:24:24;;;;;;;4.20;3.90;;;21.00;99.90;;;;;;5075449;28;20071;-61
2021/07/15 04:26:51;;;;;;;4.47;4.18;;;20.90;99.90;;;;;;5075366;28;20108;-60
2021/07/15 04:29:20;;;;;;;4.43;4.18;;;20.90;99.90;;;;;;5075553;28;20078;-60
2021/07/15 04:32:09;;;;;;;7.50;5.18;;;20.90;99.90;;;;;;5075330;28;20024;-60
2021/07/15 04:34:38;;;;;;;4.25;4.05;;;20.80;99.90;;;;;;5075306;28;20090;-59
2021/07/15 04:37:06;;;;;;;4.90;4.60;;;20.80;99.90;;;;;;5075062;28;20054;-59
2021/07/15 04:39:35;;;;;;;4.75;4.47;;;20.80;99.90;;;;;;5075028;28;20033;-59
2021/07/15 04:42:05;;;;;;;5.20;4.70;;;20.80;99.90;;;;;;5075145;28;20427;-58
2021/07/15 04:44:34;;;;;;;4.57;4.30;;;20.70;99.90;;;;;;5075239;28;20020;-59
2021/07/15 04:47:03;;;;;;;4.45;4.25;;;20.70;99.90;;;;;;5074926;28;20392;-58
2021/07/15 04:49:34;;;;;;;4.55;4.35;;;20.70;99.90;;;;;;5074750;28;20059;-58
2021/07/15 04:52:03;;;;;;;4.60;4.30;;;20.60;99.90;;;;;;5074932;28;20095;-58
2021/07/15 04:54:31;;;;;;;4.47;4.10;;;20.50;99.90;;;;;;5074815;28;20082;-58
2021/07/15 04:56:59;;;;;;;4.40;4.05;;;20.50;99.90;;;;;;5074690;28;20108;-58
2021/07/15 04:59:28;;;;;;;4.47;4.10;;;20.40;99.90;;;;;;5074597;28;20518;-58
2021/07/15 05:01:56;;;;;;;4.20;3.90;;;20.50;99.90;;;;;;5074696;28;20476;-58
2021/07/15 05:04:24;;;;;;;3.78;3.58;;;20.40;99.90;;;;;;5074675;28;20024;-58
2021/07/15 05:06:51;;;;;;;3.80;3.50;;;20.30;99.90;;;;;;5074813;28;20529;-58
2021/07/15 05:09:19;;;;;;;3.50;3.30;;;20.30;99.90;;;;;;5074683;28;20024;-58
2021/07/15 05:11:46;;;;;;;3.63;3.42;;;20.40;99.90;;;;;;5074685;28;20028;-59
2021/07/15 05:14:13;;;;;;;3.92;3.72;;;20.30;99.90;;;;;;5074676;28;20437;-59
2021/07/15 05:16:41;;;;;;;4.15;3.88;;;20.30;99.90;;;;;;5074412;28;20024;-60
2021/07/15 05:19:08;;;;;;;4.07;3.97;;;20.30;99.90;;;;;;5073744;28;20021;-60
2021/07/15 05:21:36;;;;;;;4.72;3.88;;;20.30;99.90;;;;;;5074144;28;20017;-60
2021/07/15 05:24:03;;;;;;;4.00;3.70;;;20.30;99.90;;;;;;5074199;28;20095;-59
2021/07/15 05:26:31;;;;;;;3.97;3.80;;;20.40;99.90;;;;;;5074306;28;20020;-60
2021/07/15 05:28:59;;;;;;;4.40;4.20;;;20.50;99.90;;;;;;5074173;28;20033;-60
2021/07/15 05:31:26;;;;;;;4.22;3.95;;;20.60;99.90;;;;;;5074044;28;20020;-59
2021/07/15 05:33:54;;;;;;;4.93;4.10;;;20.60;99.90;;;;;;5074014;28;20554;-60
2021/07/15 05:36:21;;;;;;;4.22;4.03;;;20.60;99.90;;;;;;5073953;28;20476;-60
2021/07/15 05:38:48;;;;;;;4.47;4.18;;;20.50;99.90;;;;;;5073935;28;20027;-60
2021/07/15 05:41:16;;;;;;;4.80;4.60;;;20.40;99.90;;;;;;5073873;28;20024;-60
2021/07/15 05:43:43;;;;;;;4.75;4.45;;;20.10;99.90;;;;;;5073789;28;20103;-60
2021/07/15 05:46:10;;;;;;;5.30;5.00;;;19.90;99.90;;;;;;5073881;28;20507;-60
2021/07/15 05:48:38;;;;;;;4.70;4.50;;;19.90;99.90;;;;;;5073853;28;20024;-57
2021/07/15 05:51:05;;;;;;;5.20;4.90;;;19.80;99.90;;;;;;5073654;28;20507;-58
2021/07/15 05:53:32;;;;;;;4.72;4.50;;;19.80;99.90;;;;;;5073480;28;20029;-58
2021/07/15 05:56:00;;;;;;;4.85;4.55;;;19.90;99.90;;;;;;5073423;28;20045;-59
2021/07/15 05:58:27;;;;;;;5.07;4.60;;;19.90;99.90;;;;;;5073411;28;20396;-58
2021/07/15 06:00:54;;;;;;;4.40;4.00;;;20.00;99.90;;;;;;5073320;28;20100;-58
2021/07/15 06:03:22;;;;;;;3.90;3.60;;;20.10;99.90;;;;;;5073382;28;20118;-58
2021/07/15 06:05:49;;;;;;;4.05;3.80;;;20.00;99.90;;;;;;5073442;28;20027;-62
2021/07/15 06:08:17;;;;;;;4.10;3.80;;;20.00;99.90;;;;;;5073140;28;20017;-57
2021/07/15 06:10:44;;;;;;;4.28;4.05;;;20.00;99.90;;;;;;5073134;28;20019;-57
2021/07/15 06:13:13;;;;;;;4.10;3.90;;;19.90;99.90;;;;;;5073131;28;20055;-57
2021/07/15 06:15:41;;;;;;;4.43;4.18;;;20.00;99.90;;;;;;5073025;28;20365;-57
2021/07/15 06:18:09;;;;;;;4.70;4.30;;;19.80;99.90;;;;;;5073237;28;20112;-57
2021/07/15 06:20:36;;;;;;;8.73;4.80;;;19.80;99.90;;;;;;5073205;28;20052;-58
2021/07/15 06:23:05;;;;;;;4.00;3.70;;;19.60;99.90;;;;;;5073006;28;20528;-58
2021/07/15 06:25:33;;;;;;;4.35;3.95;;;19.60;99.90;;;;;;5073056;28;20069;-58
2021/07/15 06:28:00;;;;;;;6.30;4.15;;;19.50;99.90;;;;;;5073034;28;20065;-58
2021/07/15 06:30:28;;;;;;;5.35;4.85;;;19.30;99.90;;;;;;5072846;28;20048;-59
2021/07/15 06:32:57;;;;;;;4.28;3.97;;;19.30;99.90;;;;;;5073047;28;20020;-58
2021/07/15 06:35:25;;;;;;;4.70;4.25;;;19.20;99.90;;;;;;5072924;28;20222;-59
2021/07/15 06:37:54;;;;;;;4.30;4.07;;;19.20;99.90;;;;;;5072701;28;20029;-58
2021/07/15 06:40:23;;;;;;;5.18;4.20;;;19.10;99.90;;;;;;5072833;28;20104;-58
2021/07/15 06:42:50;;;;;;;4.97;4.68;;;18.90;99.90;;;;;;5072813;28;20024;-58
2021/07/15 06:45:18;;;;;;;4.78;4.45;;;18.90;99.90;;;;;;5072988;28;20029;-58
2021/07/15 06:47:46;;;;;;;5.10;4.80;;;18.80;99.90;;;;;;5073110;28;20037;-58
2021/07/15 06:50:15;;;;;;;8.52;6.85;;;18.70;99.90;;;;;;5073095;28;20048;-58
2021/07/15 06:52:43;;;;;;;6.00;5.60;;;18.70;99.90;;;;;;5072962;28;20418;-59
2021/07/15 06:55:11;;;;;;;4.70;4.40;;;18.60;99.90;;;;;;5072745;28;20435;-58
2021/07/15 06:57:39;;;;;;;5.32;4.80;;;18.60;99.90;;;;;;5072746;28;20094;-57
2021/07/15 07:00:13;;;;;;;5.65;5.20;;;18.40;99.90;;;;;;5071662;28;20031;-57
2021/07/15 07:02:46;;;;;;;5.65;5.15;;;18.20;99.90;;;;;;5072701;28;20024;-59
2021/07/15 07:05:15;;;;;;;6.47;5.05;;;18.10;99.90;;;;;;5071498;28;20025;-59
2021/07/15 07:07:43;;;;;;;4.90;4.60;;;17.90;99.90;;;;;;5072778;28;20025;-60
2021/07/15 07:10:12;;;;;;;5.82;5.32;;;17.70;99.90;;;;;;5072412;28;20035;-60
2021/07/15 07:12:40;;;;;;;6.18;5.65;;;17.50;99.90;;;;;;5072681;28;20530;-58
2021/07/15 07:15:10;;;;;;;5.60;5.07;;;17.40;99.90;;;;;;5072509;28;20099;-61
2021/07/15 07:17:37;;;;;;;5.53;5.00;;;17.20;99.90;;;;;;5072393;28;20067;-63
2021/07/15 07:20:10;;;;;;;6.07;5.68;;;17.10;99.90;;;;;;5072596;28;20048;-64
2021/07/15 07:22:44;;;;;;;6.38;5.72;;;16.90;99.90;;;;;;5072545;28;20038;-63
2021/07/15 07:25:13;;;;;;;6.50;5.90;;;16.70;99.90;;;;;;5072734;28;20017;-65
2021/07/15 07:27:41;;;;;;;6.30;5.85;;;16.50;99.90;;;;;;5072631;28;20103;-63
2021/07/15 07:30:11;;;;;;;6.60;6.20;;;16.30;99.90;;;;;;5072552;28;20021;-64
2021/07/15 07:32:38;;;;;;;6.63;6.22;;;16.10;99.90;;;;;;5072438;28;20028;-64
2021/07/15 07:35:07;;;;;;;6.15;5.75;;;16.00;99.90;;;;;;5071266;28;20032;-63
2021/07/15 07:37:35;;;;;;;6.65;6.10;;;15.90;99.90;;;;;;5072378;28;20044;-66
2021/07/15 07:40:05;;;;;;;6.95;6.50;;;15.80;99.90;;;;;;5072560;28;20485;-64
2021/07/15 07:42:33;;;;;;;8.25;7.65;;;15.80;99.90;;;;;;5072782;28;20017;-64
2021/07/15 07:45:00;;;;;;;10.52;9.60;;;15.60;99.90;;;;;;5076296;28;20028;-64
2021/07/15 07:47:27;;;;;;;10.15;9.45;;;15.50;99.90;;;;;;5076004;28;20031;-64
2021/07/15 07:49:55;;;;;;;11.13;10.32;;;15.40;99.90;;;;;;5076012;28;20056;-64
2021/07/15 07:52:22;;;;;;;11.07;10.38;;;15.30;99.90;;;;;;5076136;28;20099;-64
2021/07/15 07:54:49;;;;;;;12.00;11.40;;;15.20;99.90;;;;;;5074647;28;20035;-64
2021/07/15 07:57:17;;;;;;;12.02;11.43;;;15.10;99.90;;;;;;5075779;28;20049;-60
2021/07/15 07:59:44;;;;;;;13.10;12.23;;;15.00;99.90;;;;;;5075892;28;20024;-61
2021/07/15 08:02:12;;;;;;;12.48;11.80;;;15.00;99.90;;;;;;5075846;28;20027;-60
2021/07/15 08:04:39;;;;;;;13.68;12.88;;;15.00;99.90;;;;;;5075848;28;20468;-61
2021/07/15 08:07:11;;;;;;;15.13;14.20;;;14.90;99.90;;;;;;5076320;28;20407;-61
2021/07/15 08:09:43;;;;;;;15.35;14.32;;;14.80;99.90;;;;;;5075821;28;20472;-61
2021/07/15 08:12:17;;;;;;;16.15;15.32;;;14.70;99.90;;;;;;5075497;28;20410;-61
2021/07/15 08:14:46;;;;;;;16.48;15.68;;;14.60;99.90;;;;;;5075523;28;20591;-61
2021/07/15 08:17:16;;;;;;;17.13;16.20;;;14.50;99.90;;;;;;5075526;28;20028;-61
2021/07/15 08:19:43;;;;;;;17.80;16.63;;;14.50;99.90;;;;;;5075515;28;20021;-61
2021/07/15 08:22:11;;;;;;;19.75;18.40;;;14.50;99.90;;;;;;5075200;28;20016;-61
2021/07/15 08:24:38;;;;;;;19.75;18.75;;;14.40;99.90;;;;;;5075341;28;20020;-62
2021/07/15 08:27:06;;;;;;;20.45;19.40;;;14.30;99.90;;;;;;5075414;28;20404;-61
2021/07/15 08:29:33;;;;;;;20.40;19.30;;;14.30;99.90;;;;;;5075148;28;20020;-61
2021/07/15 08:32:00;;;;;;;20.73;19.65;;;14.30;99.90;;;;;;5075065;28;20028;-62
2021/07/15 08:34:28;;;;;;;21.02;19.90;;;14.30;99.90;;;;;;5075095;28;20139;-59
2021/07/15 08:36:56;;;;;;;21.50;20.20;;;14.20;99.90;;;;;;5075047;28;20026;-60
2021/07/15 08:39:23;;;;;;;22.02;20.73;;;14.20;99.90;;;;;;5075197;28;20024;-60
2021/07/15 08:41:51;;;;;;;22.67;21.42;;;14.20;99.90;;;;;;5075024;28;20443;-59
2021/07/15 08:44:19;;;;;;;24.55;23.00;;;14.10;99.90;;;;;;5074864;28;20135;-60
2021/07/15 08:46:48;;;;;;;24.65;23.30;;;14.00;99.90;;;;;;5075150;28;20032;-59
2021/07/15 08:49:21;;;;;;;25.05;23.55;;;14.00;99.90;;;;;;5075151;28;20381;-60
2021/07/15 08:51:49;;;;;;;26.35;24.20;;;13.90;99.90;;;;;;5075057;28;20029;-61
2021/07/15 08:54:17;;;;;;;27.20;25.40;;;13.90;99.90;;;;;;5074783;28;20021;-61
2021/07/15 08:56:47;;;;;;;26.70;25.25;;;13.80;99.90;;;;;;5074638;28;20102;-62
2021/07/15 08:59:17;;;;;;;28.50;26.67;;;13.80;99.90;;;;;;5074783;28;20016;-62
2021/07/15 09:01:45;;;;;;;;;;;13.70;99.90;;;;;;5075239;28;20017;-60
2021/07/15 09:04:13;;;;;;;29.65;27.77;;;13.70;99.90;;;;;;5074623;28;19912;-61
2021/07/15 09:06:44;;;;;;;31.25;29.27;;;13.80;99.90;;;;;;5074807;28;20103;-61
2021/07/15 09:09:12;;;;;;;33.15;31.05;;;13.80;99.90;;;;;;5074879;28;20557;-60
2021/07/15 09:11:41;;;;;;;32.83;30.83;;;13.70;99.90;;;;;;5074840;28;20480;-60
2021/07/15 09:14:19;;;;;;;34.47;32.33;;;13.70;99.90;;;;;;5074434;28;20029;-61
2021/07/15 09:16:48;;;;;;;34.80;32.63;;;13.70;99.90;;;;;;5074080;28;20032;-61
2021/07/15 09:19:17;;;;;;;35.28;33.08;;;13.70;99.90;;;;;;5074344;28;20013;-61
2021/07/15 09:21:44;;;;;;;34.15;32.15;;;13.70;99.90;;;;;;5074296;28;20024;-60
2021/07/15 09:24:30;;;;;;;34.50;32.13;;;13.80;99.90;;;;;;5074072;28;20013;-60
2021/07/15 09:26:59;;;;;;;33.95;31.75;;;13.80;99.90;;;;;;5074084;28;20031;-61
2021/07/15 09:29:27;;;;;;;33.33;31.23;;;13.90;99.90;;;;;;5073978;28;20479;-61
2021/07/15 09:31:57;;;;;;;33.67;31.70;;;14.00;99.90;;;;;;5074247;28;20486;-61
2021/07/15 09:34:27;;;;;;;35.58;33.20;;;14.00;99.90;;;;;;5074068;28;20496;-60
2021/07/15 09:36:56;;;;;;;33.60;31.40;;;14.10;99.90;;;;;;5073850;28;20053;-61
2021/07/15 09:39:26;;;;;;;32.58;30.58;;;14.20;99.90;;;;;;5073890;28;20473;-61
2021/07/15 09:42:05;;;;;;;33.05;30.67;;;14.20;99.90;;;;;;5073952;28;20020;-61
2021/07/15 09:44:38;;;;;;;31.73;29.88;;;14.30;99.90;;;;;;5073994;28;20047;-61
2021/07/15 09:47:06;;;;;;;33.20;31.20;;;14.30;99.90;;;;;;5073688;28;20027;-61
2021/07/15 09:49:35;;;;;;;28.80;27.17;;;14.40;99.90;;;;;;5073740;28;20055;-61
2021/07/15 09:52:04;;;;;;;27.50;25.95;;;14.70;99.90;;;;;;5073587;28;20025;-61
2021/07/15 09:54:32;;;;;;;26.90;25.40;;;14.80;99.90;;;;;;5073625;28;20028;-60
2021/07/15 09:56:59;;;;;;;24.75;23.27;;;14.90;99.90;;;;;;5073331;28;20131;-60
2021/07/15 09:59:26;;;;;;;25.58;23.77;;;14.90;99.90;;;;;;5073499;28;20102;-60
2021/07/15 10:01:55;;;;;;;24.25;22.88;;;14.90;99.90;;;;;;5073462;28;20028;-60
2021/07/15 10:04:28;;;;;;;22.42;21.02;;;14.80;99.90;;;;;;5073521;28;20017;-60
2021/07/15 10:06:57;;;;;;;21.42;20.27;;;14.80;99.90;;;;;;5073002;28;20032;-59
2021/07/15 10:09:30;;;;;;;20.92;19.60;;;14.80;99.90;;;;;;5073445;28;20029;-60
2021/07/15 10:11:58;;;;;;;20.23;19.23;;;14.80;99.90;;;;;;5072131;28;20024;-60
2021/07/15 10:14:51;;;;;;;19.17;17.98;;;14.80;99.90;;;;;;5072169;28;20040;-60
2021/07/15 10:17:48;;;;;;;17.20;15.80;;;14.90;99.90;;;;;;5071396;28;20638;-59
2021/07/15 10:20:20;;;;;;;14.80;13.82;;;15.00;99.90;;;;;;5073064;28;20129;-60
2021/07/15 10:22:55;;;;;;;15.02;14.05;;;15.10;99.90;;;;;;5073129;28;20020;-60
2021/07/15 10:25:23;;;;;;;14.38;13.35;;;15.10;99.90;;;;;;5073222;28;20043;-60
2021/07/15 10:27:50;;;;;;;13.95;13.05;;;15.10;99.90;;;;;;5073182;28;20561;-60
2021/07/15 10:30:18;;;;;;;13.88;13.18;;;15.20;99.90;;;;;;5073199;28;20583;-61
2021/07/15 10:32:46;;;;;;;13.40;12.70;;;15.20;99.90;;;;;;5073024;28;20075;-60
2021/07/15 10:35:16;;;;;;;13.05;12.40;;;15.20;99.90;;;;;;5072939;28;20090;-62
2021/07/15 10:37:46;;;;;;;15.85;15.00;;;15.20;99.90;;;;;;5073014;28;20071;-60
2021/07/15 10:40:16;;;;;;;17.05;16.20;;;15.00;99.90;;;;;;5073302;28;20021;-62
2021/07/15 10:42:44;;;;;;;17.50;16.67;;;14.90;99.90;;;;;;5071744;28;20108;-60
2021/07/15 10:45:12;;;;;;;17.98;16.98;;;14.70;99.90;;;;;;5072942;28;20345;-60
2021/07/15 10:47:40;;;;;;;18.50;17.60;;;14.60;99.90;;;;;;5072887;28;20452;-59
2021/07/15 10:50:09;;;;;;;19.25;18.10;;;14.50;99.90;;;;;;5072858;28;20027;-59
2021/07/15 10:52:39;;;;;;;21.83;20.23;;;14.50;99.90;;;;;;5072711;28;20507;-61
2021/07/15 10:55:08;;;;;;;21.92;20.50;;;14.50;99.90;;;;;;5072786;28;20063;-58
2021/07/15 10:57:36;;;;;;;20.52;19.33;;;14.50;99.90;;;;;;5072539;28;20401;-60
2021/07/15 11:00:22;;;;;;;19.20;17.98;;;14.50;99.90;;;;;;5072547;28;20074;-60
2021/07/15 11:03:10;;;;;;;17.52;16.33;;;14.60;99.90;;;;;;5072396;28;20024;-60
2021/07/15 11:05:53;;;;;;;14.85;14.05;;;14.90;99.90;;;;;;5072452;28;20031;-62
2021/07/15 11:08:39;;;;;;;14.35;13.65;;;15.00;99.90;;;;;;5072752;28;20036;-62
2021/07/15 11:11:06;;;;;;;13.90;13.10;;;15.10;99.90;;;;;;5071538;28;20428;-61
2021/07/15 11:13:35;;;;;;;12.43;11.77;;;15.20;99.90;;;;;;5072811;28;20070;-61
2021/07/15 11:16:07;;;;;;;12.50;11.70;;;15.20;99.90;;;;;;5072315;28;20099;-60
2021/07/15 11:18:56;;;;;;;11.52;10.77;;;15.10;99.90;;;;;;5074712;28;20358;-61
2021/07/15 11:21:26;;;;;;;11.20;10.52;;;15.10;99.90;;;;;;5076846;28;20028;-60
2021/07/15 11:24:14;;;;;;;10.77;10.27;;;15.10;99.90;;;;;;5076753;28;20032;-61
2021/07/15 11:26:42;;;;;;;11.05;10.38;;;15.10;99.90;;;;;;5076548;28;20104;-61
2021/07/15 11:29:12;;;;;;;10.07;9.50;;;15.20;99.90;;;;;;5076735;28;20050;-61
2021/07/15 11:31:46;;;;;;;10.25;9.52;;;15.10;99.90;;;;;;5076443;28;20028;-62
2021/07/15 11:34:41;;;;;;;10.80;10.30;;;15.10;99.90;;;;;;5076442;28;20032;-61
2021/07/15 11:37:26;;;;;;;10.18;9.57;;;14.90;99.90;;;;;;5076280;28;20024;-61
2021/07/15 11:39:55;;;;;;;9.95;9.40;;;15.00;99.90;;;;;;5076285;28;20487;-61
2021/07/15 11:42:24;;;;;;;9.10;8.70;;;15.00;99.90;;;;;;5076314;28;20024;-60
2021/07/15 11:45:20;;;;;;;9.80;9.10;;;14.90;99.90;;;;;;5076294;28;20103;-61
2021/07/15 11:47:54;;;;;;;10.15;9.60;;;14.80;99.90;;;;;;5067435;28;20400;-61
2021/07/15 11:50:37;;;;;;;9.73;9.13;;;14.70;99.90;;;;;;5076376;28;20017;-62
2021/07/15 11:53:21;;;;;;;9.70;9.20;;;14.60;99.90;;;;;;5076061;28;20025;-62
2021/07/15 11:55:51;;;;;;;9.25;8.85;;;14.50;99.90;;;;;;5075814;28;20037;-62
2021/07/15 11:58:40;;;;;;;10.40;9.43;;;14.40;99.90;;;;;;5075893;28;20024;-60
2021/07/15 12:01:30;;;;;;;10.05;9.55;;;14.30;99.90;;;;;;5075993;28;20027;-60
2021/07/15 12:04:05;;;;;;;11.63;10.90;;;14.30;99.90;;;;;;5075819;28;20021;-60
2021/07/15 12:06:35;;;;;;;11.20;10.55;;;14.10;99.90;;;;;;5076174;28;20044;-62
2021/07/15 12:09:11;;;;;;;11.45;10.85;;;13.80;99.90;;;;;;5075863;28;20039;-61
2021/07/15 12:11:41;;;;;;;12.55;11.73;;;13.70;99.90;;;;;;5075903;28;20481;-61
2021/07/15 12:14:10;;;;;;;12.65;12.05;;;13.60;99.90;;;;;;5076055;28;20024;-63
2021/07/15 12:16:42;;;;;;;13.65;13.00;;;13.40;99.90;;;;;;5075605;28;20389;-61
2021/07/15 12:19:11;;;;;;;13.90;13.20;;;13.30;99.90;;;;;;5075689;28;20020;-61
2021/07/15 12:21:39;;;;;;;14.07;13.48;;;13.10;99.90;;;;;;5075908;28;20079;-61
2021/07/15 12:24:18;;;;;;;15.50;14.90;;;13.00;99.90;;;;;;5075514;28;20016;-61
2021/07/15 12:26:52;;;;;;;17.05;16.33;;;12.90;99.90;;;;;;5075530;28;20032;-61
2021/07/15 12:29:20;;;;;;;18.80;17.80;;;12.80;99.90;;;;;;5074944;28;20095;-60
2021/07/15 12:31:49;;;;;;;18.40;17.50;;;12.70;99.90;;;;;;5075332;28;20507;-62
2021/07/15 12:34:16;;;;;;;19.23;18.13;;;12.50;99.90;;;;;;5075601;28;20373;-60
2021/07/15 12:36:50;;;;;;;19.70;18.70;;;12.50;99.90;;;;;;5075112;28;20025;-62
2021/07/15 12:39:19;;;;;;;20.40;19.50;;;12.50;99.90;;;;;;5075279;28;20100;-62
2021/07/15 12:41:47;;;;;;;20.63;19.63;;;12.50;99.90;;;;;;5075066;28;20460;-60
2021/07/15 12:44:17;;;;;;;22.10;20.85;;;12.50;99.90;;;;;;5075146;28;20066;-60
2021/07/15 12:46:55;;;;;;;21.67;20.58;;;12.50;99.90;;;;;;5075163;28;20036;-60
2021/07/15 12:49:26;;;;;;;22.77;21.58;;;12.50;99.90;;;;;;5073950;28;20028;-63
2021/07/15 12:51:55;;;;;;;;;;;12.40;99.90;;;;;;5075553;28;20556;-63
2021/07/15 12:54:32;;;;;;;22.92;21.75;;;12.40;99.90;;;;;;5075283;28;19911;-62
2021/07/15 12:57:04;;;;;;;22.85;21.65;;;12.50;99.90;;;;;;5073569;28;20436;-62
2021/07/15 12:59:32;;;;;;;22.27;21.23;;;12.60;99.90;;;;;;5075119;28;20023;-62